createdAt,value
2023-01-08T00:01:26.826Z,51.31
2023-01-08T00:03:55.376Z,50.49
2023-01-08T00:06:25.219Z,50.74
2023-01-08T00:08:53.643Z,50.67
2023-01-08T00:11:22.003Z,50.81
2023-01-08T00:13:51.663Z,50.76
2023-01-08T00:16:20.665Z,51.06
2023-01-08T00:18:49.195Z,50.76
2023-01-08T00:21:17.551Z,50.93
2023-01-08T00:23:46.010Z,51.14
2023-01-08T00:26:14.962Z,50.85
2023-01-08T00:28:43.587Z,50.41
2023-01-08T00:31:14.141Z,51.06
2023-01-08T00:33:43.163Z,51.03
2023-01-08T00:36:12.894Z,50.89
2023-01-08T00:38:41.723Z,50.83
2023-01-08T00:41:10.478Z,50.56
2023-01-08T00:43:39.030Z,50.63
2023-01-08T00:46:07.699Z,50.87
2023-01-08T00:48:38.768Z,50.62
2023-01-08T00:51:08.942Z,50.58
2023-01-08T00:53:38.396Z,50.74
2023-01-08T00:56:08.742Z,51.03
2023-01-08T00:58:37.478Z,50.45
2023-01-08T01:01:11.148Z,50.62
2023-01-08T01:03:41.386Z,50.61
2023-01-08T01:06:10.038Z,50.68
2023-01-08T01:08:38.443Z,50.67
2023-01-08T01:11:08.532Z,50.76
2023-01-08T01:13:36.961Z,50.62
2023-01-08T01:16:06.197Z,50.98
2023-01-08T01:18:34.643Z,50.61
2023-01-08T01:21:11.043Z,50.76
2023-01-08T01:23:39.435Z,50.79
2023-01-08T01:26:07.795Z,50.61
2023-01-08T01:28:36.146Z,50.81
2023-01-08T01:31:04.627Z,50.85
2023-01-08T01:33:32.997Z,50.56
2023-01-08T01:36:03.848Z,50.46
2023-01-08T01:38:32.357Z,50.60
2023-01-08T01:41:00.987Z,50.65
2023-01-08T01:43:40.002Z,50.64
2023-01-08T01:46:23.249Z,50.92
2023-01-08T01:48:53.547Z,50.68
2023-01-08T01:51:23.398Z,50.66
2023-01-08T01:53:51.886Z,50.63
2023-01-08T01:56:20.243Z,50.69
2023-01-08T01:58:48.630Z,50.58
2023-01-08T02:01:17.177Z,50.91
2023-01-08T02:03:45.673Z,50.85
2023-01-08T02:06:20.401Z,50.82
2023-01-08T02:08:57.221Z,50.73
2023-01-08T02:11:30.857Z,50.54
2023-01-08T02:14:02.798Z,50.37
2023-01-08T02:16:36.227Z,50.76
2023-01-08T02:19:13.262Z,50.35
2023-01-08T02:21:51.517Z,50.37
2023-01-08T02:24:25.576Z,50.45
2023-01-08T02:26:56.686Z,50.93
2023-01-08T02:29:28.462Z,50.41
2023-01-08T02:31:57.592Z,50.32
2023-01-08T02:34:26.008Z,50.61
2023-01-08T02:36:55.870Z,50.41
2023-01-08T02:39:34.453Z,50.82
2023-01-08T02:42:08.543Z,50.60
2023-01-08T02:44:45.547Z,50.43
2023-01-08T02:47:23.337Z,50.33
2023-01-08T02:49:54.886Z,50.24
2023-01-08T02:52:24.720Z,50.44
2023-01-08T02:54:54.221Z,50.82
2023-01-08T02:57:25.141Z,50.22
2023-01-08T02:59:53.753Z,50.19
2023-01-08T03:02:22.330Z,50.79
2023-01-08T03:04:55.095Z,50.84
2023-01-08T03:07:23.497Z,50.75
2023-01-08T03:09:53.690Z,50.39
2023-01-08T03:12:27.510Z,50.50
2023-01-08T03:14:59.781Z,50.59
2023-01-08T03:17:30.893Z,50.21
2023-01-08T03:20:02.867Z,50.65
2023-01-08T03:22:32.531Z,50.36
2023-01-08T03:25:01.028Z,50.27
2023-01-08T03:27:32.291Z,50.14
2023-01-08T03:30:01.369Z,50.68
2023-01-08T03:32:31.418Z,50.53
2023-01-08T03:35:01.297Z,50.19
2023-01-08T03:37:34.478Z,50.29
2023-01-08T03:40:07.372Z,50.54
2023-01-08T03:42:37.098Z,50.25
2023-01-08T03:45:06.005Z,50.87
2023-01-08T03:47:35.939Z,50.32
2023-01-08T03:50:07.791Z,50.16
2023-01-08T03:52:36.226Z,50.23
2023-01-08T03:55:05.108Z,50.38
2023-01-08T03:57:34.032Z,50.49
2023-01-08T04:00:03.973Z,50.41
2023-01-08T04:02:33.617Z,50.43
2023-01-08T04:05:02.076Z,50.26
2023-01-08T04:07:30.415Z,50.39
2023-01-08T04:09:58.961Z,50.57
2023-01-08T04:12:28.035Z,50.64
2023-01-08T04:14:56.385Z,50.22
2023-01-08T04:17:26.099Z,50.39
2023-01-08T04:19:54.458Z,50.41
2023-01-08T04:22:22.833Z,50.69
2023-01-08T04:24:51.230Z,50.51
2023-01-08T04:27:19.612Z,50.42
2023-01-08T04:29:47.977Z,50.39
2023-01-08T04:32:16.373Z,50.26
2023-01-08T04:34:46.148Z,50.31
2023-01-08T04:37:14.565Z,50.21
2023-01-08T04:39:42.921Z,50.38
2023-01-08T04:42:11.313Z,50.32
2023-01-08T04:44:39.692Z,50.26
2023-01-08T04:47:08.207Z,50.15
2023-01-08T04:49:36.698Z,50.33
2023-01-08T04:52:06.726Z,49.95
2023-01-08T04:54:35.133Z,50.36
2023-01-08T04:57:03.496Z,50.08
2023-01-08T04:59:31.879Z,50.30
2023-01-08T05:02:00.383Z,49.77
2023-01-08T05:04:28.924Z,50.21
2023-01-08T05:06:57.299Z,50.16
2023-01-08T05:09:27.037Z,50.27
2023-01-08T05:11:55.416Z,50.08
2023-01-08T05:14:23.789Z,50.36
2023-01-08T05:16:52.143Z,50.09
2023-01-08T05:19:20.463Z,50.06
2023-01-08T05:21:48.832Z,50.32
2023-01-08T05:24:17.499Z,50.32
2023-01-08T05:26:47.210Z,50.25
2023-01-08T05:29:16.014Z,50.28
2023-01-08T05:31:44.664Z,50.00
2023-01-08T05:34:13.141Z,50.51
2023-01-08T05:36:41.557Z,49.97
2023-01-08T05:39:10.168Z,49.68
2023-01-08T05:41:38.706Z,50.01
2023-01-08T05:44:08.780Z,49.73
2023-01-08T05:46:37.618Z,50.35
2023-01-08T05:49:06.115Z,50.15
2023-01-08T05:51:34.503Z,49.83
2023-01-08T05:54:02.860Z,50.17
2023-01-08T05:56:31.329Z,50.13
2023-01-08T05:58:59.739Z,49.80
2023-01-08T06:01:29.477Z,49.77
2023-01-08T06:03:59.041Z,50.07
2023-01-08T06:06:27.968Z,49.89
2023-01-08T06:08:56.460Z,50.06
2023-01-08T06:11:24.847Z,49.95
2023-01-08T06:13:53.193Z,49.59
2023-01-08T06:16:22.021Z,49.69
2023-01-08T06:18:51.795Z,50.00
2023-01-08T06:21:20.207Z,50.30
2023-01-08T06:23:48.776Z,49.80
2023-01-08T06:26:17.088Z,49.47
2023-01-08T06:28:45.462Z,50.00
2023-01-08T06:31:14.019Z,49.82
2023-01-08T06:33:42.511Z,49.88
2023-01-08T06:36:12.432Z,49.62
2023-01-08T06:38:40.803Z,49.99
2023-01-08T06:41:11.541Z,49.92
2023-01-08T06:43:40.283Z,49.86
2023-01-08T06:46:09.958Z,49.57
2023-01-08T06:48:38.698Z,50.14
2023-01-08T06:51:07.529Z,49.67
2023-01-08T06:53:37.347Z,49.66
2023-01-08T06:56:09.285Z,49.81
2023-01-08T06:58:38.695Z,49.56
2023-01-08T07:01:07.375Z,49.75
2023-01-08T07:03:35.810Z,49.73
2023-01-08T07:06:04.640Z,49.98
2023-01-08T07:08:32.977Z,49.98
2023-01-08T07:11:04.658Z,49.70
2023-01-08T07:13:33.090Z,49.69
2023-01-08T07:16:06.538Z,50.07
2023-01-08T07:18:36.118Z,49.72
2023-01-08T07:21:04.846Z,50.14
2023-01-08T07:23:33.520Z,49.74
2023-01-08T07:26:01.999Z,49.95
2023-01-08T07:28:31.996Z,49.81
2023-01-08T07:31:04.159Z,49.79
2023-01-08T07:33:33.014Z,49.63
2023-01-08T07:36:01.424Z,49.41
2023-01-08T07:38:29.956Z,49.53
2023-01-08T07:40:58.633Z,49.47
2023-01-08T07:43:30.167Z,49.50
2023-01-08T07:46:02.555Z,49.82
2023-01-08T07:48:30.954Z,49.74
2023-01-08T07:51:03.207Z,49.59
2023-01-08T07:53:32.167Z,49.68
2023-01-08T07:56:02.848Z,49.62
2023-01-08T07:58:31.701Z,49.58
2023-01-08T08:01:01.735Z,49.54
2023-01-08T08:03:30.501Z,49.45
2023-01-08T08:06:01.046Z,49.66
2023-01-08T08:08:29.427Z,49.32
2023-01-08T08:10:58.005Z,49.44
2023-01-08T08:13:26.439Z,49.87
2023-01-08T08:15:54.949Z,49.14
2023-01-08T08:18:24.726Z,49.33
2023-01-08T08:20:53.080Z,49.67
2023-01-08T08:23:21.535Z,49.84
2023-01-08T08:25:51.805Z,49.20
2023-01-08T08:28:20.514Z,49.38
2023-01-08T08:30:48.919Z,49.62
2023-01-08T08:33:17.294Z,49.17
2023-01-08T08:35:51.074Z,49.41
2023-01-08T08:38:20.168Z,49.63
2023-01-08T08:40:49.655Z,49.68
2023-01-08T08:43:18.059Z,49.36
2023-01-08T08:45:46.512Z,49.33
2023-01-08T08:48:16.745Z,49.39
2023-01-08T08:50:45.186Z,49.72
2023-01-08T08:53:14.898Z,49.42
2023-01-08T08:55:43.294Z,49.46
2023-01-08T08:58:13.028Z,49.42
2023-01-08T09:00:42.546Z,49.30
2023-01-08T09:03:13.815Z,49.65
2023-01-08T09:05:43.121Z,49.51
2023-01-08T09:08:11.955Z,49.16
2023-01-08T09:10:43.503Z,49.34
2023-01-08T09:13:12.865Z,49.48
2023-01-08T09:15:41.232Z,49.52
2023-01-08T09:18:10.086Z,49.34
2023-01-08T09:20:38.678Z,49.34
2023-01-08T09:23:07.925Z,49.28
2023-01-08T09:25:36.314Z,49.36
2023-01-08T09:28:07.577Z,49.43
2023-01-08T09:30:36.590Z,49.54
2023-01-08T09:33:05.858Z,49.47
2023-01-08T09:35:34.792Z,49.09
2023-01-08T09:38:03.256Z,49.08
2023-01-08T09:40:34.622Z,49.47
2023-01-08T09:43:06.734Z,49.15
2023-01-08T09:45:39.070Z,49.03
2023-01-08T09:48:15.448Z,49.10
2023-01-08T09:50:43.991Z,49.34
2023-01-08T09:53:15.716Z,48.89
2023-01-08T09:55:44.732Z,49.12
2023-01-08T09:58:23.570Z,48.79
2023-01-08T10:00:52.718Z,48.91
2023-01-08T10:03:23.461Z,49.22
2023-01-08T10:05:52.689Z,48.92
2023-01-08T10:08:21.068Z,48.97
2023-01-08T10:10:49.503Z,48.64
2023-01-08T10:13:19.219Z,48.68
2023-01-08T10:15:47.908Z,48.92
2023-01-08T10:18:19.337Z,48.89
2023-01-08T10:20:47.748Z,48.66
2023-01-08T10:23:17.964Z,48.44
2023-01-08T10:25:52.118Z,48.88
2023-01-08T10:28:23.556Z,48.75
2023-01-08T10:30:53.033Z,49.21
2023-01-08T10:33:25.250Z,48.56
2023-01-08T10:35:57.173Z,48.84
2023-01-08T10:38:30.958Z,48.96
2023-01-08T10:41:02.496Z,48.88
2023-01-08T10:43:35.364Z,48.88
2023-01-08T10:46:05.841Z,48.83
2023-01-08T10:48:36.245Z,48.72
2023-01-08T10:51:07.083Z,48.78
2023-01-08T10:53:35.604Z,48.81
2023-01-08T10:56:06.123Z,48.91
2023-01-08T10:58:43.707Z,48.83
2023-01-08T11:01:14.361Z,49.00
2023-01-08T11:03:43.006Z,48.74
2023-01-08T11:06:13.058Z,49.01
2023-01-08T11:08:53.707Z,48.76
2023-01-08T11:11:24.747Z,48.94
2023-01-08T11:13:59.633Z,49.34
2023-01-08T11:16:33.600Z,48.65
2023-01-08T11:19:02.071Z,48.98
2023-01-08T11:21:32.569Z,48.97
2023-01-08T11:24:12.472Z,49.16
2023-01-08T11:26:41.849Z,48.80
2023-01-08T11:29:16.757Z,49.04
2023-01-08T11:31:48.513Z,48.72
2023-01-08T11:34:20.927Z,48.59
2023-01-08T11:36:51.284Z,49.03
2023-01-08T11:39:19.914Z,48.46
2023-01-08T11:42:16.734Z,49.17
2023-01-08T11:44:55.141Z,48.95
2023-01-08T11:47:30.284Z,48.95
2023-01-08T11:50:11.220Z,48.74
2023-01-08T11:52:48.102Z,48.74
2023-01-08T11:55:34.109Z,48.92
2023-01-08T11:58:24.450Z,48.82
2023-01-08T12:01:00.237Z,48.88
2023-01-08T12:03:33.248Z,49.00
2023-01-08T12:06:11.368Z,49.28
2023-01-08T12:08:44.095Z,48.78
2023-01-08T12:11:17.305Z,48.90
2023-01-08T12:14:00.505Z,48.66
2023-01-08T12:16:40.137Z,48.68
2023-01-08T12:19:20.064Z,48.94
2023-01-08T12:22:02.750Z,48.58
2023-01-08T12:24:55.869Z,48.84
2023-01-08T12:27:54.542Z,49.18
2023-01-08T12:30:27.284Z,48.54
2023-01-08T12:33:02.356Z,49.01
2023-01-08T12:35:35.545Z,48.93
2023-01-08T12:38:07.380Z,48.68
2023-01-08T12:40:38.045Z,48.63
2023-01-08T12:43:09.189Z,48.85
2023-01-08T12:45:41.402Z,49.20
2023-01-08T12:48:16.315Z,48.96
2023-01-08T12:51:00.320Z,48.85
2023-01-08T12:53:38.995Z,48.83
2023-01-08T12:56:12.550Z,48.66
2023-01-08T12:58:55.537Z,48.93
2023-01-08T13:01:34.061Z,49.11
2023-01-08T13:04:06.277Z,49.31
2023-01-08T13:06:35.046Z,49.02
2023-01-08T13:09:03.748Z,48.90
2023-01-08T13:11:33.912Z,49.27
2023-01-08T13:14:04.458Z,49.04
2023-01-08T13:16:40.256Z,48.72
2023-01-08T13:19:25.108Z,48.64
2023-01-08T13:21:55.732Z,48.65
2023-01-08T13:24:31.431Z,49.16
2023-01-08T13:27:12.442Z,48.81
2023-01-08T13:29:42.742Z,48.74
2023-01-08T13:32:30.749Z,48.87
2023-01-08T13:35:21.087Z,49.13
2023-01-08T13:37:50.955Z,48.87
2023-01-08T13:40:39.418Z,49.08
2023-01-08T13:43:13.471Z,49.05
2023-01-08T13:45:42.592Z,49.09
2023-01-08T13:48:22.771Z,49.19
2023-01-08T13:50:52.727Z,49.08
2023-01-08T13:53:21.698Z,48.92
2023-01-08T13:55:56.065Z,48.75
2023-01-08T13:58:26.522Z,48.69
2023-01-08T14:00:56.046Z,49.26
2023-01-08T14:03:26.801Z,49.20
2023-01-08T14:06:06.915Z,48.83
2023-01-08T14:08:35.375Z,49.15
2023-01-08T14:11:04.452Z,48.86
2023-01-08T14:13:38.900Z,49.05
2023-01-08T14:16:13.011Z,49.38
2023-01-08T14:18:41.815Z,49.14
2023-01-08T14:21:11.751Z,49.14
2023-01-08T14:23:43.045Z,49.37
2023-01-08T14:26:18.750Z,48.83
2023-01-08T14:28:52.650Z,49.03
2023-01-08T14:31:23.031Z,49.18
2023-01-08T14:33:53.194Z,49.39
2023-01-08T14:36:23.366Z,49.20
2023-01-08T14:38:52.328Z,49.07
2023-01-08T14:41:48.430Z,48.88
2023-01-08T14:44:21.062Z,49.04
2023-01-08T14:46:55.493Z,48.80
2023-01-08T14:49:26.365Z,49.01
2023-01-08T14:51:57.205Z,49.30
2023-01-08T14:54:29.013Z,49.23
2023-01-08T14:56:59.363Z,49.03
2023-01-08T14:59:30.965Z,49.02
2023-01-08T15:02:02.012Z,48.70
2023-01-08T15:04:31.391Z,48.85
2023-01-08T15:07:09.397Z,49.06
2023-01-08T15:09:38.030Z,49.24
2023-01-08T15:12:08.371Z,49.40
2023-01-08T15:14:36.869Z,49.12
2023-01-08T15:17:10.740Z,49.45
2023-01-08T15:19:42.578Z,48.96
2023-01-08T15:22:17.284Z,48.76
2023-01-08T15:24:55.648Z,49.04
2023-01-08T15:27:24.595Z,49.13
2023-01-08T15:29:59.779Z,48.90
2023-01-08T15:32:31.337Z,49.30
2023-01-08T15:34:59.986Z,49.50
2023-01-08T15:37:30.501Z,49.11
2023-01-08T15:40:00.238Z,49.27
2023-01-08T15:42:47.747Z,49.26
2023-01-08T15:45:18.037Z,49.53
2023-01-08T15:47:47.622Z,49.57
2023-01-08T15:50:16.286Z,49.30
2023-01-08T15:52:46.075Z,49.12
2023-01-08T15:55:18.376Z,48.93
2023-01-08T15:57:46.902Z,48.96
2023-01-08T16:00:16.312Z,49.50
2023-01-08T16:02:47.047Z,49.18
2023-01-08T16:05:17.440Z,49.12
2023-01-08T16:07:47.721Z,49.21
2023-01-08T16:10:16.798Z,49.52
2023-01-08T16:12:45.676Z,49.29
2023-01-08T16:15:15.855Z,49.45
2023-01-08T16:17:44.892Z,49.32
2023-01-08T16:20:15.019Z,49.55
2023-01-08T16:22:43.777Z,49.25
2023-01-08T16:25:14.009Z,49.24
2023-01-08T16:27:43.780Z,49.63
2023-01-08T16:30:15.794Z,49.07
2023-01-08T16:32:46.646Z,49.02
2023-01-08T16:35:15.227Z,49.36
2023-01-08T16:37:43.906Z,49.00
2023-01-08T16:40:15.611Z,49.31
2023-01-08T16:42:44.060Z,49.53
2023-01-08T16:45:12.848Z,49.39
2023-01-08T16:47:41.791Z,49.54
2023-01-08T16:50:12.191Z,49.53
2023-01-08T16:52:40.982Z,49.49
2023-01-08T16:55:11.559Z,49.55
2023-01-08T16:57:41.935Z,49.63
2023-01-08T17:00:15.302Z,48.89
2023-01-08T17:02:44.446Z,49.00
2023-01-08T17:05:13.424Z,49.27
2023-01-08T17:07:42.051Z,48.87
2023-01-08T17:10:11.729Z,49.34
2023-01-08T17:12:41.783Z,49.22
2023-01-08T17:15:11.798Z,49.51
2023-01-08T17:17:40.859Z,49.00
2023-01-08T17:20:11.720Z,49.43
2023-01-08T17:22:42.039Z,49.53
2023-01-08T17:25:11.264Z,49.19
2023-01-08T17:27:41.831Z,49.16
2023-01-08T17:30:11.639Z,49.37
2023-01-08T17:32:40.195Z,49.14
2023-01-08T17:35:09.482Z,49.39
2023-01-08T17:37:42.269Z,49.12
2023-01-08T17:40:12.458Z,49.08
2023-01-08T17:42:43.305Z,49.50
2023-01-08T17:45:12.855Z,49.14
2023-01-08T17:47:42.063Z,49.48
2023-01-08T17:50:12.386Z,49.41
2023-01-08T17:52:40.947Z,49.66
2023-01-08T17:55:09.915Z,49.54
2023-01-08T17:57:38.273Z,49.38
2023-01-08T18:00:10.056Z,49.42
2023-01-08T18:02:38.482Z,49.58
2023-01-08T18:05:07.887Z,48.95
2023-01-08T18:07:36.545Z,49.49
2023-01-08T18:10:05.545Z,49.56
2023-01-08T18:12:33.904Z,49.34
2023-01-08T18:15:02.305Z,49.17
2023-01-08T18:17:32.515Z,49.30
2023-01-08T18:20:01.067Z,49.45
2023-01-08T18:22:29.518Z,49.38
2023-01-08T18:24:57.926Z,49.60
2023-01-08T18:27:26.565Z,49.28
2023-01-08T18:29:55.355Z,49.17
2023-01-08T18:32:26.157Z,49.35
2023-01-08T18:34:56.355Z,49.15
2023-01-08T18:37:25.012Z,49.20
2023-01-08T18:39:53.414Z,48.95
2023-01-08T18:42:27.694Z,49.57
2023-01-08T18:44:56.746Z,49.10
2023-01-08T18:47:26.561Z,49.25
2023-01-08T18:49:59.125Z,49.67
2023-01-08T18:52:27.592Z,49.37
2023-01-08T18:54:56.005Z,49.34
2023-01-08T18:57:24.473Z,49.40
2023-01-08T18:59:52.835Z,49.18
2023-01-08T19:02:22.996Z,48.88
2023-01-08T19:04:51.809Z,49.22
2023-01-08T19:07:21.653Z,49.28
2023-01-08T19:09:50.296Z,49.37
2023-01-08T19:12:18.696Z,49.56
2023-01-08T19:14:47.290Z,49.16
2023-01-08T19:17:15.764Z,49.33
2023-01-08T19:19:44.189Z,49.08
2023-01-08T19:22:12.627Z,49.14
2023-01-08T19:24:42.634Z,48.98
2023-01-08T19:27:10.994Z,49.23
2023-01-08T19:29:40.044Z,49.18
2023-01-08T19:32:09.402Z,49.43
2023-01-08T19:34:38.053Z,49.62
2023-01-08T19:37:06.544Z,49.07
2023-01-08T19:39:34.970Z,49.04
2023-01-08T19:42:22.981Z,49.15
2023-01-08T19:44:51.557Z,49.09
2023-01-08T19:47:19.955Z,48.98
2023-01-08T19:49:49.451Z,49.36
2023-01-08T19:52:18.754Z,49.26
2023-01-08T19:54:48.121Z,49.12
2023-01-08T19:57:18.472Z,49.41
2023-01-08T19:59:46.938Z,49.37
2023-01-08T20:02:15.354Z,49.67
2023-01-08T20:04:44.323Z,49.09
2023-01-08T20:07:13.570Z,49.07
2023-01-08T20:09:42.915Z,49.35
2023-01-08T20:12:13.999Z,49.33
2023-01-08T20:14:43.784Z,49.30
2023-01-08T20:17:12.757Z,49.50
2023-01-08T20:19:41.245Z,49.09
2023-01-08T20:22:09.986Z,49.41
2023-01-08T20:24:38.893Z,49.47
2023-01-08T20:27:07.860Z,49.40
2023-01-08T20:29:36.430Z,49.50
2023-01-08T20:32:06.644Z,49.15
2023-01-08T20:34:35.464Z,49.25
2023-01-08T20:37:05.798Z,49.16
2023-01-08T20:39:34.489Z,49.47
2023-01-08T20:42:04.592Z,48.99
2023-01-08T20:44:33.773Z,49.30
2023-01-08T20:47:02.351Z,49.05
2023-01-08T20:49:32.126Z,49.27
2023-01-08T20:52:00.893Z,49.54
2023-01-08T20:54:30.654Z,48.98
2023-01-08T20:57:00.361Z,49.17
2023-01-08T20:59:29.010Z,49.25
2023-01-08T21:01:57.565Z,49.15
2023-01-08T21:04:26.456Z,49.47
2023-01-08T21:06:56.286Z,49.10
2023-01-08T21:09:24.658Z,49.21
2023-01-08T21:11:53.122Z,49.37
2023-01-08T21:14:21.570Z,49.40
2023-01-08T21:16:50.034Z,49.33
2023-01-08T21:19:18.543Z,49.17
2023-01-08T21:21:46.930Z,49.33
2023-01-08T21:24:16.842Z,49.36
2023-01-08T21:26:46.306Z,49.03
2023-01-08T21:29:16.917Z,49.21
2023-01-08T21:31:45.583Z,49.36
2023-01-08T21:34:14.761Z,49.30
2023-01-08T21:36:44.005Z,49.11
2023-01-08T21:39:13.076Z,49.18
2023-01-08T21:42:00.779Z,49.18
2023-01-08T21:44:50.875Z,49.12
2023-01-08T21:47:20.212Z,49.30
2023-01-08T21:49:49.324Z,49.38
2023-01-08T21:52:35.616Z,49.00
2023-01-08T21:55:04.273Z,49.67
2023-01-08T21:57:39.134Z,49.28
2023-01-08T22:00:08.918Z,49.54
2023-01-08T22:02:37.864Z,49.09
2023-01-08T22:05:06.932Z,49.44
2023-01-08T22:07:35.513Z,49.54
2023-01-08T22:10:04.559Z,49.20
2023-01-08T22:12:34.279Z,49.52
2023-01-08T22:15:02.850Z,49.38
2023-01-08T22:17:31.788Z,49.48
2023-01-08T22:20:01.339Z,49.43
2023-01-08T22:22:29.840Z,49.24
2023-01-08T22:24:58.395Z,49.37
2023-01-08T22:27:27.226Z,49.38
2023-01-08T22:29:57.019Z,49.49
2023-01-08T22:32:25.968Z,49.13
2023-01-08T22:34:54.454Z,49.12
2023-01-08T22:37:22.824Z,49.10
2023-01-08T22:39:51.233Z,48.91
2023-01-08T22:42:19.654Z,49.05
2023-01-08T22:44:49.969Z,49.54
2023-01-08T22:47:19.768Z,49.35
2023-01-08T22:49:48.758Z,49.35
2023-01-08T22:52:17.411Z,49.08
2023-01-08T22:54:45.847Z,49.12
2023-01-08T22:57:14.260Z,49.37
2023-01-08T22:59:42.653Z,49.01
2023-01-08T23:02:11.098Z,49.17
2023-01-08T23:04:40.849Z,49.04
2023-01-08T23:07:09.281Z,49.33
2023-01-08T23:09:37.641Z,49.05
2023-01-08T23:12:06.287Z,49.44
2023-01-08T23:14:34.693Z,49.11
2023-01-08T23:17:03.177Z,49.45
2023-01-08T23:19:31.538Z,48.89
2023-01-08T23:22:01.592Z,49.50
2023-01-08T23:24:30.677Z,49.09
2023-01-08T23:26:59.408Z,49.30
2023-01-08T23:29:29.553Z,49.04
2023-01-08T23:31:58.430Z,49.12
2023-01-08T23:34:26.844Z,49.32
2023-01-08T23:36:55.329Z,49.53
2023-01-08T23:39:26.628Z,49.49
2023-01-08T23:41:56.149Z,49.50
2023-01-08T23:44:24.824Z,49.14
2023-01-08T23:46:53.767Z,49.23
2023-01-08T23:49:22.283Z,49.25
2023-01-08T23:51:50.721Z,49.07
2023-01-08T23:54:19.425Z,49.43
2023-01-08T23:56:49.636Z,49.59
2023-01-08T23:59:18.030Z,49.58
